sensor_id;sensor_type;location;lat;lon;timestamp;temperature;humidity
7155;DHT22;3619;53.784;10.440;2023-02-04T00:00:00;3.10;99.90
7155;DHT22;3619;53.784;10.440;2023-02-04T00:02:27;3.10;99.90
7155;DHT22;3619;53.784;10.440;2023-02-04T00:04:54;3.10;99.90
7155;DHT22;3619;53.784;10.440;2023-02-04T00:07:22;3.10;99.90
7155;DHT22;3619;53.784;10.440;2023-02-04T00:09:49;3.10;99.90
7155;DHT22;3619;53.784;10.440;2023-02-04T00:12:16;3.20;99.90
7155;DHT22;3619;53.784;10.440;2023-02-04T00:14:43;3.30;99.90
7155;DHT22;3619;53.784;10.440;2023-02-04T00:17:10;3.30;99.90
7155;DHT22;3619;53.784;10.440;2023-02-04T00:19:38;3.40;99.90
7155;DHT22;3619;53.784;10.440;2023-02-04T00:22:04;3.40;99.90
7155;DHT22;3619;53.784;10.440;2023-02-04T00:24:35;3.40;99.90
7155;DHT22;3619;53.784;10.440;2023-02-04T00:27:04;3.50;99.90
7155;DHT22;3619;53.784;10.440;2023-02-04T00:29:31;3.50;99.90
7155;DHT22;3619;53.784;10.440;2023-02-04T00:31:57;3.50;99.90
7155;DHT22;3619;53.784;10.440;2023-02-04T00:34:24;3.50;99.90
7155;DHT22;3619;53.784;10.440;2023-02-04T00:36:51;3.50;99.90
7155;DHT22;3619;53.784;10.440;2023-02-04T00:39:18;3.50;99.90
7155;DHT22;3619;53.784;10.440;2023-02-04T00:41:46;3.50;99.90
7155;DHT22;3619;53.784;10.440;2023-02-04T00:44:13;3.50;99.90
7155;DHT22;3619;53.784;10.440;2023-02-04T00:46:40;3.50;99.90
7155;DHT22;3619;53.784;10.440;2023-02-04T00:49:06;3.40;99.90
7155;DHT22;3619;53.784;10.440;2023-02-04T00:51:36;3.50;99.90
7155;DHT22;3619;53.784;10.440;2023-02-04T00:54:04;3.40;99.90
7155;DHT22;3619;53.784;10.440;2023-02-04T00:56:31;3.40;99.90
7155;DHT22;3619;53.784;10.440;2023-02-04T00:58:59;3.40;99.90
7155;DHT22;3619;53.784;10.440;2023-02-04T01:01:26;3.40;99.90
7155;DHT22;3619;53.784;10.440;2023-02-04T01:03:52;3.40;99.90
7155;DHT22;3619;53.784;10.440;2023-02-04T01:06:19;3.40;99.90
7155;DHT22;3619;53.784;10.440;2023-02-04T01:08:46;3.30;99.90
7155;DHT22;3619;53.784;10.440;2023-02-04T01:11:13;3.30;99.90
7155;DHT22;3619;53.784;10.440;2023-02-04T01:13:40;3.30;99.90
7155;DHT22;3619;53.784;10.440;2023-02-04T01:16:08;3.40;99.90
7155;DHT22;3619;53.784;10.440;2023-02-04T01:18:36;3.40;99.90
7155;DHT22;3619;53.784;10.440;2023-02-04T01:21:03;3.40;99.90
7155;DHT22;3619;53.784;10.440;2023-02-04T01:23:29;3.40;99.90
7155;DHT22;3619;53.784;10.440;2023-02-04T01:25:56;3.40;99.90
7155;DHT22;3619;53.784;10.440;2023-02-04T01:28:26;3.40;99.90
7155;DHT22;3619;53.784;10.440;2023-02-04T01:30:53;3.50;99.90
7155;DHT22;3619;53.784;10.440;2023-02-04T01:33:21;3.40;99.90
7155;DHT22;3619;53.784;10.440;2023-02-04T01:35:48;3.40;99.90
7155;DHT22;3619;53.784;10.440;2023-02-04T01:38:15;3.30;99.90
7155;DHT22;3619;53.784;10.440;2023-02-04T01:40:42;3.40;99.90
7155;DHT22;3619;53.784;10.440;2023-02-04T01:43:09;3.40;99.90
7155;DHT22;3619;53.784;10.440;2023-02-04T01:45:37;3.40;99.90
7155;DHT22;3619;53.784;10.440;2023-02-04T01:48:04;3.30;99.90
7155;DHT22;3619;53.784;10.440;2023-02-04T01:50:33;3.40;99.90
7155;DHT22;3619;53.784;10.440;2023-02-04T01:53:00;3.30;99.90
7155;DHT22;3619;53.784;10.440;2023-02-04T01:55:30;3.40;99.90
7155;DHT22;3619;53.784;10.440;2023-02-04T01:57:57;3.30;99.90
7155;DHT22;3619;53.784;10.440;2023-02-04T02:00:29;3.30;99.90
7155;DHT22;3619;53.784;10.440;2023-02-04T02:02:56;3.30;99.90
7155;DHT22;3619;53.784;10.440;2023-02-04T02:05:25;3.30;99.90
7155;DHT22;3619;53.784;10.440;2023-02-04T02:07:56;3.30;99.90
7155;DHT22;3619;53.784;10.440;2023-02-04T02:10:24;3.30;99.90
7155;DHT22;3619;53.784;10.440;2023-02-04T02:12:52;3.20;99.90
7155;DHT22;3619;53.784;10.440;2023-02-04T02:15:19;3.10;99.90
7155;DHT22;3619;53.784;10.440;2023-02-04T02:17:46;3.10;99.90
7155;DHT22;3619;53.784;10.440;2023-02-04T02:20:16;3.10;99.90
7155;DHT22;3619;53.784;10.440;2023-02-04T02:22:51;3.00;99.90
7155;DHT22;3619;53.784;10.440;2023-02-04T02:25:22;3.00;99.90
7155;DHT22;3619;53.784;10.440;2023-02-04T02:27:49;2.90;99.90
7155;DHT22;3619;53.784;10.440;2023-02-04T02:30:17;2.90;99.90
7155;DHT22;3619;53.784;10.440;2023-02-04T02:32:45;2.80;99.90
7155;DHT22;3619;53.784;10.440;2023-02-04T02:35:12;2.80;99.90
7155;DHT22;3619;53.784;10.440;2023-02-04T02:37:40;2.80;99.90
7155;DHT22;3619;53.784;10.440;2023-02-04T02:40:07;2.80;99.90
7155;DHT22;3619;53.784;10.440;2023-02-04T02:42:36;2.80;99.90
7155;DHT22;3619;53.784;10.440;2023-02-04T02:45:07;2.80;99.90
7155;DHT22;3619;53.784;10.440;2023-02-04T02:47:37;2.80;99.90
7155;DHT22;3619;53.784;10.440;2023-02-04T02:50:05;2.80;99.90
7155;DHT22;3619;53.784;10.440;2023-02-04T02:52:32;2.80;99.90
7155;DHT22;3619;53.784;10.440;2023-02-04T02:54:58;2.80;99.90
7155;DHT22;3619;53.784;10.440;2023-02-04T02:57:25;2.80;99.90
7155;DHT22;3619;53.784;10.440;2023-02-04T02:59:54;2.80;99.90
7155;DHT22;3619;53.784;10.440;2023-02-04T03:02:22;2.80;99.90
7155;DHT22;3619;53.784;10.440;2023-02-04T03:04:53;2.70;99.90
7155;DHT22;3619;53.784;10.440;2023-02-04T03:07:21;2.80;99.90
7155;DHT22;3619;53.784;10.440;2023-02-04T03:09:49;2.80;99.90
7155;DHT22;3619;53.784;10.440;2023-02-04T03:12:18;2.80;99.90
7155;DHT22;3619;53.784;10.440;2023-02-04T03:14:45;2.90;99.90
7155;DHT22;3619;53.784;10.440;2023-02-04T03:17:13;2.80;99.90
7155;DHT22;3619;53.784;10.440;2023-02-04T03:19:41;2.80;99.90
7155;DHT22;3619;53.784;10.440;2023-02-04T03:22:07;2.80;99.90
7155;DHT22;3619;53.784;10.440;2023-02-04T03:24:35;2.80;99.90
7155;DHT22;3619;53.784;10.440;2023-02-04T03:27:02;2.80;99.90
7155;DHT22;3619;53.784;10.440;2023-02-04T03:29:29;2.70;99.90
7155;DHT22;3619;53.784;10.440;2023-02-04T03:31:56;2.70;99.90
7155;DHT22;3619;53.784;10.440;2023-02-04T03:34:26;2.70;99.90
7155;DHT22;3619;53.784;10.440;2023-02-04T03:36:52;2.60;99.90
7155;DHT22;3619;53.784;10.440;2023-02-04T03:39:19;2.60;99.90
7155;DHT22;3619;53.784;10.440;2023-02-04T03:41:46;2.60;99.90
7155;DHT22;3619;53.784;10.440;2023-02-04T03:44:13;2.60;99.90
7155;DHT22;3619;53.784;10.440;2023-02-04T03:46:40;2.60;99.90
7155;DHT22;3619;53.784;10.440;2023-02-04T03:49:06;2.60;99.90
7155;DHT22;3619;53.784;10.440;2023-02-04T03:51:35;2.60;99.90
7155;DHT22;3619;53.784;10.440;2023-02-04T03:54:01;2.60;99.90
7155;DHT22;3619;53.784;10.440;2023-02-04T03:56:28;2.60;99.90
7155;DHT22;3619;53.784;10.440;2023-02-04T03:58:55;2.60;99.90
7155;DHT22;3619;53.784;10.440;2023-02-04T04:01:22;2.60;99.90
7155;DHT22;3619;53.784;10.440;2023-02-04T04:03:51;2.50;99.90
7155;DHT22;3619;53.784;10.440;2023-02-04T04:06:17;2.50;99.90
7155;DHT22;3619;53.784;10.440;2023-02-04T04:08:45;2.50;99.90
7155;DHT22;3619;53.784;10.440;2023-02-04T04:11:12;2.50;99.90
7155;DHT22;3619;53.784;10.440;2023-02-04T04:13:39;2.50;99.90
7155;DHT22;3619;53.784;10.440;2023-02-04T04:16:06;2.60;99.90
7155;DHT22;3619;53.784;10.440;2023-02-04T04:18:33;2.50;99.90
7155;DHT22;3619;53.784;10.440;2023-02-04T04:21:00;2.50;99.90
7155;DHT22;3619;53.784;10.440;2023-02-04T04:23:27;2.50;99.90
7155;DHT22;3619;53.784;10.440;2023-02-04T04:25:55;2.50;99.90
7155;DHT22;3619;53.784;10.440;2023-02-04T04:28:22;2.50;99.90
7155;DHT22;3619;53.784;10.440;2023-02-04T04:30:48;2.50;99.90
7155;DHT22;3619;53.784;10.440;2023-02-04T04:33:15;2.50;99.90
7155;DHT22;3619;53.784;10.440;2023-02-04T04:35:42;2.40;99.90
7155;DHT22;3619;53.784;10.440;2023-02-04T04:38:09;2.30;99.90
7155;DHT22;3619;53.784;10.440;2023-02-04T04:40:35;2.30;99.90
7155;DHT22;3619;53.784;10.440;2023-02-04T04:43:03;2.30;99.90
7155;DHT22;3619;53.784;10.440;2023-02-04T04:45:30;2.20;99.90
7155;DHT22;3619;53.784;10.440;2023-02-04T04:47:57;2.20;99.90
7155;DHT22;3619;53.784;10.440;2023-02-04T04:50:26;2.10;99.90
7155;DHT22;3619;53.784;10.440;2023-02-04T04:52:53;2.10;99.90
7155;DHT22;3619;53.784;10.440;2023-02-04T04:55:20;2.00;99.90
7155;DHT22;3619;53.784;10.440;2023-02-04T04:57:47;1.90;99.90
7155;DHT22;3619;53.784;10.440;2023-02-04T05:00:18;1.90;99.90
7155;DHT22;3619;53.784;10.440;2023-02-04T05:02:45;1.70;99.90
7155;DHT22;3619;53.784;10.440;2023-02-04T05:05:12;1.60;99.90
7155;DHT22;3619;53.784;10.440;2023-02-04T05:07:40;1.50;99.90
7155;DHT22;3619;53.784;10.440;2023-02-04T05:10:09;1.50;99.90
7155;DHT22;3619;53.784;10.440;2023-02-04T05:12:35;1.40;99.90
7155;DHT22;3619;53.784;10.440;2023-02-04T05:15:02;1.40;99.90
7155;DHT22;3619;53.784;10.440;2023-02-04T05:17:31;1.50;99.90
7155;DHT22;3619;53.784;10.440;2023-02-04T05:19:57;1.40;99.90
7155;DHT22;3619;53.784;10.440;2023-02-04T05:22:24;1.30;99.90
7155;DHT22;3619;53.784;10.440;2023-02-04T05:24:51;1.20;99.90
7155;DHT22;3619;53.784;10.440;2023-02-04T05:27:18;1.20;99.90
7155;DHT22;3619;53.784;10.440;2023-02-04T05:29:45;1.20;99.90
7155;DHT22;3619;53.784;10.440;2023-02-04T05:32:14;1.10;99.90
7155;DHT22;3619;53.784;10.440;2023-02-04T05:34:44;1.10;99.90
7155;DHT22;3619;53.784;10.440;2023-02-04T05:37:10;1.10;99.90
7155;DHT22;3619;53.784;10.440;2023-02-04T05:39:39;1.00;99.90
7155;DHT22;3619;53.784;10.440;2023-02-04T05:42:06;1.00;99.90
7155;DHT22;3619;53.784;10.440;2023-02-04T05:44:33;0.90;99.90
7155;DHT22;3619;53.784;10.440;2023-02-04T05:47:00;0.80;99.90
7155;DHT22;3619;53.784;10.440;2023-02-04T05:49:26;0.80;99.90
7155;DHT22;3619;53.784;10.440;2023-02-04T05:51:56;0.70;99.90
7155;DHT22;3619;53.784;10.440;2023-02-04T05:54:22;0.80;99.90
7155;DHT22;3619;53.784;10.440;2023-02-04T05:56:50;0.90;99.90
7155;DHT22;3619;53.784;10.440;2023-02-04T05:59:17;0.70;99.90
7155;DHT22;3619;53.784;10.440;2023-02-04T06:01:44;0.70;99.90
7155;DHT22;3619;53.784;10.440;2023-02-04T06:04:11;0.70;99.90
7155;DHT22;3619;53.784;10.440;2023-02-04T06:06:40;0.70;99.90
7155;DHT22;3619;53.784;10.440;2023-02-04T06:09:10;0.70;99.90
7155;DHT22;3619;53.784;10.440;2023-02-04T06:11:37;0.60;99.90
7155;DHT22;3619;53.784;10.440;2023-02-04T06:14:04;0.70;99.90
7155;DHT22;3619;53.784;10.440;2023-02-04T06:16:31;0.50;99.90
7155;DHT22;3619;53.784;10.440;2023-02-04T06:19:06;0.50;99.90
7155;DHT22;3619;53.784;10.440;2023-02-04T06:21:33;0.60;99.90
7155;DHT22;3619;53.784;10.440;2023-02-04T06:24:00;0.60;99.90
7155;DHT22;3619;53.784;10.440;2023-02-04T06:26:28;0.60;99.90
7155;DHT22;3619;53.784;10.440;2023-02-04T06:28:55;0.70;99.90
7155;DHT22;3619;53.784;10.440;2023-02-04T06:31:21;0.70;99.90
7155;DHT22;3619;53.784;10.440;2023-02-04T06:33:48;0.60;99.90
7155;DHT22;3619;53.784;10.440;2023-02-04T06:36:15;0.70;99.90
7155;DHT22;3619;53.784;10.440;2023-02-04T06:38:42;0.70;99.90
7155;DHT22;3619;53.784;10.440;2023-02-04T06:41:10;0.50;99.90
7155;DHT22;3619;53.784;10.440;2023-02-04T06:43:38;0.50;99.90
7155;DHT22;3619;53.784;10.440;2023-02-04T06:46:10;0.50;99.90
7155;DHT22;3619;53.784;10.440;2023-02-04T06:48:44;0.60;99.90
7155;DHT22;3619;53.784;10.440;2023-02-04T06:51:11;0.60;99.90
7155;DHT22;3619;53.784;10.440;2023-02-04T06:53:37;0.60;99.90
7155;DHT22;3619;53.784;10.440;2023-02-04T06:56:05;0.60;99.90
7155;DHT22;3619;53.784;10.440;2023-02-04T06:58:32;0.60;99.90
7155;DHT22;3619;53.784;10.440;2023-02-04T07:01:02;0.60;99.90
7155;DHT22;3619;53.784;10.440;2023-02-04T07:03:30;0.50;99.90
7155;DHT22;3619;53.784;10.440;2023-02-04T07:05:57;0.50;99.90
7155;DHT22;3619;53.784;10.440;2023-02-04T07:08:24;0.60;99.90
7155;DHT22;3619;53.784;10.440;2023-02-04T07:10:50;0.60;99.90
7155;DHT22;3619;53.784;10.440;2023-02-04T07:13:17;0.60;99.90
7155;DHT22;3619;53.784;10.440;2023-02-04T07:15:44;0.60;99.90
7155;DHT22;3619;53.784;10.440;2023-02-04T07:18:12;0.60;99.90
7155;DHT22;3619;53.784;10.440;2023-02-04T07:20:39;0.60;99.90
7155;DHT22;3619;53.784;10.440;2023-02-04T07:23:06;0.60;99.90
7155;DHT22;3619;53.784;10.440;2023-02-04T07:25:32;0.60;99.90
7155;DHT22;3619;53.784;10.440;2023-02-04T07:27:59;0.60;99.90
7155;DHT22;3619;53.784;10.440;2023-02-04T07:30:28;0.70;99.90
7155;DHT22;3619;53.784;10.440;2023-02-04T07:32:55;0.70;99.90
7155;DHT22;3619;53.784;10.440;2023-02-04T07:35:23;0.70;99.90
7155;DHT22;3619;53.784;10.440;2023-02-04T07:37:49;0.70;99.90
7155;DHT22;3619;53.784;10.440;2023-02-04T07:40:16;0.60;99.90
7155;DHT22;3619;53.784;10.440;2023-02-04T07:42:43;0.60;99.90
7155;DHT22;3619;53.784;10.440;2023-02-04T07:45:10;0.50;99.90
7155;DHT22;3619;53.784;10.440;2023-02-04T07:47:37;0.50;99.90
7155;DHT22;3619;53.784;10.440;2023-02-04T07:50:04;0.60;99.90
7155;DHT22;3619;53.784;10.440;2023-02-04T07:52:33;0.60;99.90
7155;DHT22;3619;53.784;10.440;2023-02-04T07:55:00;0.70;99.90
7155;DHT22;3619;53.784;10.440;2023-02-04T07:57:27;0.70;99.90
7155;DHT22;3619;53.784;10.440;2023-02-04T07:59:54;0.80;99.90
7155;DHT22;3619;53.784;10.440;2023-02-04T08:02:21;0.90;99.90
7155;DHT22;3619;53.784;10.440;2023-02-04T08:04:48;1.00;99.90
7155;DHT22;3619;53.784;10.440;2023-02-04T08:07:14;1.00;99.90
7155;DHT22;3619;53.784;10.440;2023-02-04T08:09:43;1.00;99.90
7155;DHT22;3619;53.784;10.440;2023-02-04T08:12:12;1.10;99.90
7155;DHT22;3619;53.784;10.440;2023-02-04T08:14:39;1.20;99.90
7155;DHT22;3619;53.784;10.440;2023-02-04T08:17:05;1.20;99.90
7155;DHT22;3619;53.784;10.440;2023-02-04T08:19:32;1.30;99.90
7155;DHT22;3619;53.784;10.440;2023-02-04T08:21:59;1.30;99.90
7155;DHT22;3619;53.784;10.440;2023-02-04T08:24:26;1.30;99.90
7155;DHT22;3619;53.784;10.440;2023-02-04T08:26:54;1.40;99.90
7155;DHT22;3619;53.784;10.440;2023-02-04T08:29:21;1.50;99.90
7155;DHT22;3619;53.784;10.440;2023-02-04T08:31:47;1.60;99.90
7155;DHT22;3619;53.784;10.440;2023-02-04T08:34:14;1.70;99.90
7155;DHT22;3619;53.784;10.440;2023-02-04T08:36:41;1.70;99.90
7155;DHT22;3619;53.784;10.440;2023-02-04T08:39:09;1.80;99.90
7155;DHT22;3619;53.784;10.440;2023-02-04T08:41:36;1.80;99.90
7155;DHT22;3619;53.784;10.440;2023-02-04T08:44:05;1.90;99.90
7155;DHT22;3619;53.784;10.440;2023-02-04T08:46:32;2.00;99.90
7155;DHT22;3619;53.784;10.440;2023-02-04T08:48:58;2.10;99.90
7155;DHT22;3619;53.784;10.440;2023-02-04T08:51:26;2.20;99.90
7155;DHT22;3619;53.784;10.440;2023-02-04T08:53:53;2.20;99.90
7155;DHT22;3619;53.784;10.440;2023-02-04T08:56:20;2.30;99.90
7155;DHT22;3619;53.784;10.440;2023-02-04T08:58:46;2.30;99.90
7155;DHT22;3619;53.784;10.440;2023-02-04T09:01:14;2.30;99.90
7155;DHT22;3619;53.784;10.440;2023-02-04T09:03:41;2.30;99.90
7155;DHT22;3619;53.784;10.440;2023-02-04T09:06:08;2.30;99.90
7155;DHT22;3619;53.784;10.440;2023-02-04T09:08:35;2.40;99.90
7155;DHT22;3619;53.784;10.440;2023-02-04T09:11:02;2.50;99.90
7155;DHT22;3619;53.784;10.440;2023-02-04T09:13:30;2.60;99.90
7155;DHT22;3619;53.784;10.440;2023-02-04T09:15:57;2.60;99.90
7155;DHT22;3619;53.784;10.440;2023-02-04T09:18:25;2.70;99.90
7155;DHT22;3619;53.784;10.440;2023-02-04T09:20:52;2.80;99.90
7155;DHT22;3619;53.784;10.440;2023-02-04T09:23:19;3.00;99.90
7155;DHT22;3619;53.784;10.440;2023-02-04T09:25:47;3.10;99.90
7155;DHT22;3619;53.784;10.440;2023-02-04T09:28:16;3.20;99.90
7155;DHT22;3619;53.784;10.440;2023-02-04T09:30:44;3.30;99.90
7155;DHT22;3619;53.784;10.440;2023-02-04T09:33:13;3.30;99.90
7155;DHT22;3619;53.784;10.440;2023-02-04T09:35:42;3.30;99.90
7155;DHT22;3619;53.784;10.440;2023-02-04T09:38:09;3.30;99.90
7155;DHT22;3619;53.784;10.440;2023-02-04T09:40:40;3.20;99.90
7155;DHT22;3619;53.784;10.440;2023-02-04T09:43:11;3.30;99.90
7155;DHT22;3619;53.784;10.440;2023-02-04T09:45:39;3.40;99.90
7155;DHT22;3619;53.784;10.440;2023-02-04T09:48:08;3.60;99.90
7155;DHT22;3619;53.784;10.440;2023-02-04T09:50:36;3.50;99.90
7155;DHT22;3619;53.784;10.440;2023-02-04T09:53:05;3.60;99.90
7155;DHT22;3619;53.784;10.440;2023-02-04T09:55:34;3.60;99.90
7155;DHT22;3619;53.784;10.440;2023-02-04T09:58:02;3.60;99.90
7155;DHT22;3619;53.784;10.440;2023-02-04T10:00:31;3.70;99.90
7155;DHT22;3619;53.784;10.440;2023-02-04T10:02:59;3.70;99.90
7155;DHT22;3619;53.784;10.440;2023-02-04T10:05:29;3.80;99.90
7155;DHT22;3619;53.784;10.440;2023-02-04T10:07:57;3.80;99.90
7155;DHT22;3619;53.784;10.440;2023-02-04T10:10:26;3.90;99.90
7155;DHT22;3619;53.784;10.440;2023-02-04T10:12:57;3.90;99.90
7155;DHT22;3619;53.784;10.440;2023-02-04T10:15:25;3.80;99.90
7155;DHT22;3619;53.784;10.440;2023-02-04T10:17:54;3.90;99.90
7155;DHT22;3619;53.784;10.440;2023-02-04T10:20:24;3.90;99.90
7155;DHT22;3619;53.784;10.440;2023-02-04T10:22:53;3.70;99.90
7155;DHT22;3619;53.784;10.440;2023-02-04T10:25:22;3.70;99.90
7155;DHT22;3619;53.784;10.440;2023-02-04T10:27:52;3.80;99.90
7155;DHT22;3619;53.784;10.440;2023-02-04T10:30:21;3.90;99.90
7155;DHT22;3619;53.784;10.440;2023-02-04T10:32:48;3.90;99.90
7155;DHT22;3619;53.784;10.440;2023-02-04T10:35:17;4.10;99.90
7155;DHT22;3619;53.784;10.440;2023-02-04T10:37:44;4.20;99.90
7155;DHT22;3619;53.784;10.440;2023-02-04T10:40:35;4.20;99.90
7155;DHT22;3619;53.784;10.440;2023-02-04T10:43:08;4.30;99.90
7155;DHT22;3619;53.784;10.440;2023-02-04T10:45:36;4.40;99.90
7155;DHT22;3619;53.784;10.440;2023-02-04T10:48:04;4.60;99.90
7155;DHT22;3619;53.784;10.440;2023-02-04T10:50:31;4.70;99.90
7155;DHT22;3619;53.784;10.440;2023-02-04T10:52:58;4.90;99.90
7155;DHT22;3619;53.784;10.440;2023-02-04T10:55:43;5.10;99.90
7155;DHT22;3619;53.784;10.440;2023-02-04T10:58:16;5.10;99.90
7155;DHT22;3619;53.784;10.440;2023-02-04T11:00:43;5.20;99.90
7155;DHT22;3619;53.784;10.440;2023-02-04T11:03:13;5.00;99.90
7155;DHT22;3619;53.784;10.440;2023-02-04T11:05:43;4.90;99.90
7155;DHT22;3619;53.784;10.440;2023-02-04T11:08:20;4.70;99.90
7155;DHT22;3619;53.784;10.440;2023-02-04T11:10:49;4.60;99.90
7155;DHT22;3619;53.784;10.440;2023-02-04T11:13:23;4.40;99.90
7155;DHT22;3619;53.784;10.440;2023-02-04T11:18:48;4.30;99.90
7155;DHT22;3619;53.784;10.440;2023-02-04T11:21:24;4.10;99.90
7155;DHT22;3619;53.784;10.440;2023-02-04T11:24:02;4.00;99.90
7155;DHT22;3619;53.784;10.440;2023-02-04T11:26:34;3.90;99.90
7155;DHT22;3619;53.784;10.440;2023-02-04T11:29:27;3.80;99.90
7155;DHT22;3619;53.784;10.440;2023-02-04T11:32:02;3.70;99.90
7155;DHT22;3619;53.784;10.440;2023-02-04T11:34:45;3.60;99.90
7155;DHT22;3619;53.784;10.440;2023-02-04T11:37:16;3.60;99.90
7155;DHT22;3619;53.784;10.440;2023-02-04T11:39:44;3.50;99.90
7155;DHT22;3619;53.784;10.440;2023-02-04T11:42:21;3.60;99.90
7155;DHT22;3619;53.784;10.440;2023-02-04T11:44:51;3.50;99.90
7155;DHT22;3619;53.784;10.440;2023-02-04T11:47:23;3.50;99.90
7155;DHT22;3619;53.784;10.440;2023-02-04T11:49:56;3.60;99.90
7155;DHT22;3619;53.784;10.440;2023-02-04T11:52:23;3.60;99.90
7155;DHT22;3619;53.784;10.440;2023-02-04T11:54:54;3.60;99.90
7155;DHT22;3619;53.784;10.440;2023-02-04T11:57:21;3.60;99.90
7155;DHT22;3619;53.784;10.440;2023-02-04T11:59:52;3.60;99.90
7155;DHT22;3619;53.784;10.440;2023-02-04T12:02:23;3.50;99.90
7155;DHT22;3619;53.784;10.440;2023-02-04T12:04:54;3.60;99.90
7155;DHT22;3619;53.784;10.440;2023-02-04T12:07:24;3.80;99.90
7155;DHT22;3619;53.784;10.440;2023-02-04T12:09:51;4.20;99.90
7155;DHT22;3619;53.784;10.440;2023-02-04T12:12:26;4.40;99.90
7155;DHT22;3619;53.784;10.440;2023-02-04T12:15:01;4.50;99.90
7155;DHT22;3619;53.784;10.440;2023-02-04T12:17:31;4.70;99.90
7155;DHT22;3619;53.784;10.440;2023-02-04T12:19:58;4.80;99.90
7155;DHT22;3619;53.784;10.440;2023-02-04T12:22:24;4.90;99.90
7155;DHT22;3619;53.784;10.440;2023-02-04T12:24:51;5.00;99.90
7155;DHT22;3619;53.784;10.440;2023-02-04T12:27:19;5.10;99.90
7155;DHT22;3619;53.784;10.440;2023-02-04T12:29:47;5.30;99.90
7155;DHT22;3619;53.784;10.440;2023-02-04T12:32:15;5.20;99.90
7155;DHT22;3619;53.784;10.440;2023-02-04T12:34:42;5.40;99.90
7155;DHT22;3619;53.784;10.440;2023-02-04T12:37:09;5.40;99.90
7155;DHT22;3619;53.784;10.440;2023-02-04T12:39:37;5.20;99.90
7155;DHT22;3619;53.784;10.440;2023-02-04T12:42:04;5.10;99.90
7155;DHT22;3619;53.784;10.440;2023-02-04T12:44:31;4.90;99.90
7155;DHT22;3619;53.784;10.440;2023-02-04T12:47:00;4.60;99.90
7155;DHT22;3619;53.784;10.440;2023-02-04T12:49:28;4.40;99.90
7155;DHT22;3619;53.784;10.440;2023-02-04T12:51:54;4.30;99.90
7155;DHT22;3619;53.784;10.440;2023-02-04T12:54:26;4.20;99.90
7155;DHT22;3619;53.784;10.440;2023-02-04T12:56:57;4.20;99.90
7155;DHT22;3619;53.784;10.440;2023-02-04T12:59:24;4.20;99.90
7155;DHT22;3619;53.784;10.440;2023-02-04T13:01:51;4.20;99.90
7155;DHT22;3619;53.784;10.440;2023-02-04T13:04:24;4.20;99.90
7155;DHT22;3619;53.784;10.440;2023-02-04T13:06:52;4.30;99.90
7155;DHT22;3619;53.784;10.440;2023-02-04T13:09:19;4.50;99.90
7155;DHT22;3619;53.784;10.440;2023-02-04T13:11:45;4.70;99.90
7155;DHT22;3619;53.784;10.440;2023-02-04T13:14:13;5.00;99.90
7155;DHT22;3619;53.784;10.440;2023-02-04T13:16:40;5.10;99.90
7155;DHT22;3619;53.784;10.440;2023-02-04T13:19:07;5.10;99.90
7155;DHT22;3619;53.784;10.440;2023-02-04T13:21:36;5.00;99.90
7155;DHT22;3619;53.784;10.440;2023-02-04T13:24:04;4.80;99.90
7155;DHT22;3619;53.784;10.440;2023-02-04T13:26:37;4.60;99.90
7155;DHT22;3619;53.784;10.440;2023-02-04T13:29:04;4.50;99.90
7155;DHT22;3619;53.784;10.440;2023-02-04T13:31:30;4.40;99.90
7155;DHT22;3619;53.784;10.440;2023-02-04T13:33:59;4.40;99.90
7155;DHT22;3619;53.784;10.440;2023-02-04T13:36:26;4.30;99.90
7155;DHT22;3619;53.784;10.440;2023-02-04T13:38:54;4.30;99.90
7155;DHT22;3619;53.784;10.440;2023-02-04T13:41:25;4.30;99.90
7155;DHT22;3619;53.784;10.440;2023-02-04T13:43:53;4.40;99.90
7155;DHT22;3619;53.784;10.440;2023-02-04T13:46:22;4.30;99.90
7155;DHT22;3619;53.784;10.440;2023-02-04T13:48:51;4.20;99.90
7155;DHT22;3619;53.784;10.440;2023-02-04T13:51:18;4.20;99.90
7155;DHT22;3619;53.784;10.440;2023-02-04T13:53:48;4.20;99.90
7155;DHT22;3619;53.784;10.440;2023-02-04T13:56:32;4.20;99.90
7155;DHT22;3619;53.784;10.440;2023-02-04T13:58:58;4.30;99.90
7155;DHT22;3619;53.784;10.440;2023-02-04T14:01:25;4.30;99.90
7155;DHT22;3619;53.784;10.440;2023-02-04T14:04:05;4.30;99.90
7155;DHT22;3619;53.784;10.440;2023-02-04T14:06:34;4.30;99.90
7155;DHT22;3619;53.784;10.440;2023-02-04T14:09:08;4.30;99.90
7155;DHT22;3619;53.784;10.440;2023-02-04T14:11:37;4.30;99.90
7155;DHT22;3619;53.784;10.440;2023-02-04T14:14:04;4.30;99.90
7155;DHT22;3619;53.784;10.440;2023-02-04T14:16:30;4.30;99.90
7155;DHT22;3619;53.784;10.440;2023-02-04T14:18:57;4.30;99.90
7155;DHT22;3619;53.784;10.440;2023-02-04T14:21:24;4.20;99.90
7155;DHT22;3619;53.784;10.440;2023-02-04T14:23:51;4.20;99.90
7155;DHT22;3619;53.784;10.440;2023-02-04T14:26:18;4.20;99.90
7155;DHT22;3619;53.784;10.440;2023-02-04T14:28:46;4.20;99.90
7155;DHT22;3619;53.784;10.440;2023-02-04T14:31:15;4.20;99.90
7155;DHT22;3619;53.784;10.440;2023-02-04T14:33:42;4.20;99.90
7155;DHT22;3619;53.784;10.440;2023-02-04T14:36:08;4.20;99.90
7155;DHT22;3619;53.784;10.440;2023-02-04T14:38:35;4.20;99.90
7155;DHT22;3619;53.784;10.440;2023-02-04T14:41:03;4.20;99.90
7155;DHT22;3619;53.784;10.440;2023-02-04T14:43:30;4.10;99.90
7155;DHT22;3619;53.784;10.440;2023-02-04T14:46:05;4.10;99.90
7155;DHT22;3619;53.784;10.440;2023-02-04T14:48:32;4.10;99.90
7155;DHT22;3619;53.784;10.440;2023-02-04T14:50:58;4.10;99.90
7155;DHT22;3619;53.784;10.440;2023-02-04T14:53:27;4.10;99.90
7155;DHT22;3619;53.784;10.440;2023-02-04T14:56:03;4.10;99.90
7155;DHT22;3619;53.784;10.440;2023-02-04T14:58:30;4.10;99.90
7155;DHT22;3619;53.784;10.440;2023-02-04T15:00:57;4.00;99.90
7155;DHT22;3619;53.784;10.440;2023-02-04T15:03:25;3.80;99.90
7155;DHT22;3619;53.784;10.440;2023-02-04T15:05:52;3.70;99.90
7155;DHT22;3619;53.784;10.440;2023-02-04T15:08:18;3.60;99.90
7155;DHT22;3619;53.784;10.440;2023-02-04T15:10:45;3.50;99.90
7155;DHT22;3619;53.784;10.440;2023-02-04T15:13:12;3.40;99.90
7155;DHT22;3619;53.784;10.440;2023-02-04T15:15:39;3.20;99.90
7155;DHT22;3619;53.784;10.440;2023-02-04T15:18:07;3.20;99.90
7155;DHT22;3619;53.784;10.440;2023-02-04T15:20:35;3.20;99.90
7155;DHT22;3619;53.784;10.440;2023-02-04T15:23:02;3.10;99.90
7155;DHT22;3619;53.784;10.440;2023-02-04T15:25:32;3.00;99.90
7155;DHT22;3619;53.784;10.440;2023-02-04T15:27:59;3.00;99.90
7155;DHT22;3619;53.784;10.440;2023-02-04T15:30:25;2.90;99.90
7155;DHT22;3619;53.784;10.440;2023-02-04T15:32:52;2.80;99.90
7155;DHT22;3619;53.784;10.440;2023-02-04T15:35:19;2.70;99.90
7155;DHT22;3619;53.784;10.440;2023-02-04T15:37:47;2.70;99.90
7155;DHT22;3619;53.784;10.440;2023-02-04T15:40:14;2.60;99.90
7155;DHT22;3619;53.784;10.440;2023-02-04T15:42:44;2.50;99.90
7155;DHT22;3619;53.784;10.440;2023-02-04T15:45:14;2.50;99.90
7155;DHT22;3619;53.784;10.440;2023-02-04T15:47:40;2.50;99.90
7155;DHT22;3619;53.784;10.440;2023-02-04T15:50:08;2.30;99.90
7155;DHT22;3619;53.784;10.440;2023-02-04T15:52:37;2.20;99.90
7155;DHT22;3619;53.784;10.440;2023-02-04T15:55:05;2.20;99.90
7155;DHT22;3619;53.784;10.440;2023-02-04T15:57:35;2.20;99.90
7155;DHT22;3619;53.784;10.440;2023-02-04T16:00:03;2.20;99.90
7155;DHT22;3619;53.784;10.440;2023-02-04T16:02:30;2.10;99.90
7155;DHT22;3619;53.784;10.440;2023-02-04T16:04:57;2.10;99.90
7155;DHT22;3619;53.784;10.440;2023-02-04T16:07:24;2.00;99.90
7155;DHT22;3619;53.784;10.440;2023-02-04T16:09:51;1.90;99.90